sensor_id;sensor_type;location;lat;lon;timestamp;temperature;humidity
13436;DHT22;6790;49.520;8.504;2024-03-06T00:01:47;5.30;99.90
13436;DHT22;6790;49.520;8.504;2024-03-06T00:04:13;5.20;99.90
13436;DHT22;6790;49.520;8.504;2024-03-06T00:06:39;5.30;99.90
13436;DHT22;6790;49.520;8.504;2024-03-06T00:09:04;5.30;99.90
13436;DHT22;6790;49.520;8.504;2024-03-06T00:11:30;5.20;99.90
13436;DHT22;6790;49.520;8.504;2024-03-06T00:13:56;5.20;99.90
13436;DHT22;6790;49.520;8.504;2024-03-06T00:16:21;5.20;99.90
13436;DHT22;6790;49.520;8.504;2024-03-06T00:18:47;5.20;99.90
13436;DHT22;6790;49.520;8.504;2024-03-06T00:21:13;5.10;99.90
13436;DHT22;6790;49.520;8.504;2024-03-06T00:23:38;5.10;99.90
13436;DHT22;6790;49.520;8.504;2024-03-06T00:26:04;5.10;99.90
13436;DHT22;6790;49.520;8.504;2024-03-06T00:28:30;5.00;99.90
13436;DHT22;6790;49.520;8.504;2024-03-06T00:30:56;5.10;99.90
13436;DHT22;6790;49.520;8.504;2024-03-06T00:33:22;5.10;99.90
13436;DHT22;6790;49.520;8.504;2024-03-06T00:35:48;5.10;99.90
13436;DHT22;6790;49.520;8.504;2024-03-06T00:38:14;5.10;99.90
13436;DHT22;6790;49.520;8.504;2024-03-06T00:40:39;5.10;99.90
13436;DHT22;6790;49.520;8.504;2024-03-06T00:43:06;5.10;99.90
13436;DHT22;6790;49.520;8.504;2024-03-06T00:45:31;5.10;99.90
13436;DHT22;6790;49.520;8.504;2024-03-06T00:47:57;5.10;99.90
13436;DHT22;6790;49.520;8.504;2024-03-06T00:50:23;5.10;99.90
13436;DHT22;6790;49.520;8.504;2024-03-06T00:52:49;5.10;99.90
13436;DHT22;6790;49.520;8.504;2024-03-06T00:55:15;5.00;99.90
13436;DHT22;6790;49.520;8.504;2024-03-06T00:57:41;5.00;99.90
13436;DHT22;6790;49.520;8.504;2024-03-06T01:00:07;5.00;99.90
13436;DHT22;6790;49.520;8.504;2024-03-06T01:02:36;5.00;99.90
13436;DHT22;6790;49.520;8.504;2024-03-06T01:05:03;5.00;99.90
13436;DHT22;6790;49.520;8.504;2024-03-06T01:07:29;4.90;99.90
13436;DHT22;6790;49.520;8.504;2024-03-06T01:09:56;4.90;99.90
13436;DHT22;6790;49.520;8.504;2024-03-06T01:12:23;4.90;99.90
13436;DHT22;6790;49.520;8.504;2024-03-06T01:14:49;4.90;99.90
13436;DHT22;6790;49.520;8.504;2024-03-06T01:17:15;4.80;99.90
13436;DHT22;6790;49.520;8.504;2024-03-06T01:19:40;4.80;99.90
13436;DHT22;6790;49.520;8.504;2024-03-06T01:22:09;4.80;99.90
13436;DHT22;6790;49.520;8.504;2024-03-06T01:24:35;4.80;99.90
13436;DHT22;6790;49.520;8.504;2024-03-06T01:27:00;4.70;99.90
13436;DHT22;6790;49.520;8.504;2024-03-06T01:29:28;4.60;99.90
13436;DHT22;6790;49.520;8.504;2024-03-06T01:31:54;4.60;99.90
13436;DHT22;6790;49.520;8.504;2024-03-06T01:34:20;4.50;99.90
13436;DHT22;6790;49.520;8.504;2024-03-06T01:36:46;4.40;99.90
13436;DHT22;6790;49.520;8.504;2024-03-06T01:39:11;4.40;99.90
13436;DHT22;6790;49.520;8.504;2024-03-06T01:41:37;4.30;99.90
13436;DHT22;6790;49.520;8.504;2024-03-06T01:44:03;4.20;99.90
13436;DHT22;6790;49.520;8.504;2024-03-06T01:46:29;4.20;99.90
13436;DHT22;6790;49.520;8.504;2024-03-06T01:48:55;4.10;99.90
13436;DHT22;6790;49.520;8.504;2024-03-06T01:51:21;4.10;99.90
13436;DHT22;6790;49.520;8.504;2024-03-06T01:53:47;4.10;99.90
13436;DHT22;6790;49.520;8.504;2024-03-06T01:56:13;3.90;99.90
13436;DHT22;6790;49.520;8.504;2024-03-06T01:58:44;3.80;99.90
13436;DHT22;6790;49.520;8.504;2024-03-06T02:01:12;3.80;99.90
13436;DHT22;6790;49.520;8.504;2024-03-06T02:03:38;3.80;99.90
13436;DHT22;6790;49.520;8.504;2024-03-06T02:06:05;3.70;99.90
13436;DHT22;6790;49.520;8.504;2024-03-06T02:08:31;3.70;99.90
13436;DHT22;6790;49.520;8.504;2024-03-06T02:10:57;3.60;99.90
13436;DHT22;6790;49.520;8.504;2024-03-06T02:13:25;3.60;99.90
13436;DHT22;6790;49.520;8.504;2024-03-06T02:15:51;3.50;99.90
13436;DHT22;6790;49.520;8.504;2024-03-06T02:18:17;3.60;99.90
13436;DHT22;6790;49.520;8.504;2024-03-06T02:20:42;3.70;99.90
13436;DHT22;6790;49.520;8.504;2024-03-06T02:23:08;3.70;99.90
13436;DHT22;6790;49.520;8.504;2024-03-06T02:25:34;3.70;99.90
13436;DHT22;6790;49.520;8.504;2024-03-06T02:27:59;3.70;99.90
13436;DHT22;6790;49.520;8.504;2024-03-06T02:30:25;3.80;99.90
13436;DHT22;6790;49.520;8.504;2024-03-06T02:32:51;3.70;99.90
13436;DHT22;6790;49.520;8.504;2024-03-06T02:35:17;3.70;99.90
13436;DHT22;6790;49.520;8.504;2024-03-06T02:37:43;3.70;99.90
13436;DHT22;6790;49.520;8.504;2024-03-06T02:40:12;3.70;99.90
13436;DHT22;6790;49.520;8.504;2024-03-06T02:42:38;3.60;99.90
13436;DHT22;6790;49.520;8.504;2024-03-06T02:45:05;3.50;99.90
13436;DHT22;6790;49.520;8.504;2024-03-06T02:47:32;3.50;99.90
13436;DHT22;6790;49.520;8.504;2024-03-06T02:49:58;3.50;99.90
13436;DHT22;6790;49.520;8.504;2024-03-06T02:52:23;3.50;99.90
13436;DHT22;6790;49.520;8.504;2024-03-06T02:54:49;3.50;99.90
13436;DHT22;6790;49.520;8.504;2024-03-06T02:57:14;3.40;99.90
13436;DHT22;6790;49.520;8.504;2024-03-06T02:59:40;3.40;99.90
13436;DHT22;6790;49.520;8.504;2024-03-06T03:02:06;3.40;99.90
13436;DHT22;6790;49.520;8.504;2024-03-06T03:04:32;3.30;99.90
13436;DHT22;6790;49.520;8.504;2024-03-06T03:06:58;3.30;99.90
13436;DHT22;6790;49.520;8.504;2024-03-06T03:09:23;3.30;99.90
13436;DHT22;6790;49.520;8.504;2024-03-06T03:11:49;3.30;99.90
13436;DHT22;6790;49.520;8.504;2024-03-06T03:14:15;3.40;99.90
13436;DHT22;6790;49.520;8.504;2024-03-06T03:16:41;3.30;99.90
13436;DHT22;6790;49.520;8.504;2024-03-06T03:19:07;3.20;99.90
13436;DHT22;6790;49.520;8.504;2024-03-06T03:21:34;3.10;99.90
13436;DHT22;6790;49.520;8.504;2024-03-06T03:23:59;3.20;99.90
13436;DHT22;6790;49.520;8.504;2024-03-06T03:26:25;3.20;99.90
13436;DHT22;6790;49.520;8.504;2024-03-06T03:28:51;3.30;99.90
13436;DHT22;6790;49.520;8.504;2024-03-06T03:31:16;3.20;99.90
13436;DHT22;6790;49.520;8.504;2024-03-06T03:33:42;3.20;99.90
13436;DHT22;6790;49.520;8.504;2024-03-06T03:36:08;3.30;99.90
13436;DHT22;6790;49.520;8.504;2024-03-06T03:38:35;3.10;99.90
13436;DHT22;6790;49.520;8.504;2024-03-06T03:41:10;3.20;99.90
13436;DHT22;6790;49.520;8.504;2024-03-06T03:43:38;3.10;99.90
13436;DHT22;6790;49.520;8.504;2024-03-06T03:46:04;3.10;99.90
13436;DHT22;6790;49.520;8.504;2024-03-06T03:48:31;3.00;99.90
13436;DHT22;6790;49.520;8.504;2024-03-06T03:50:57;3.00;99.90
13436;DHT22;6790;49.520;8.504;2024-03-06T03:53:23;3.10;99.90
13436;DHT22;6790;49.520;8.504;2024-03-06T03:55:48;3.00;99.90
13436;DHT22;6790;49.520;8.504;2024-03-06T03:58:15;3.00;99.90
13436;DHT22;6790;49.520;8.504;2024-03-06T04:00:41;3.00;99.90
13436;DHT22;6790;49.520;8.504;2024-03-06T04:03:06;2.90;99.90
13436;DHT22;6790;49.520;8.504;2024-03-06T04:05:33;2.90;99.90
13436;DHT22;6790;49.520;8.504;2024-03-06T04:07:59;2.80;99.90
13436;DHT22;6790;49.520;8.504;2024-03-06T04:10:24;2.90;99.90
13436;DHT22;6790;49.520;8.504;2024-03-06T04:12:50;2.90;99.90
13436;DHT22;6790;49.520;8.504;2024-03-06T04:15:16;2.80;99.90
13436;DHT22;6790;49.520;8.504;2024-03-06T04:17:41;2.90;99.90
13436;DHT22;6790;49.520;8.504;2024-03-06T04:20:07;2.80;99.90
13436;DHT22;6790;49.520;8.504;2024-03-06T04:22:38;2.90;99.90
13436;DHT22;6790;49.520;8.504;2024-03-06T04:25:04;2.90;99.90
13436;DHT22;6790;49.520;8.504;2024-03-06T04:27:30;2.90;99.90
13436;DHT22;6790;49.520;8.504;2024-03-06T04:29:56;3.00;99.90
13436;DHT22;6790;49.520;8.504;2024-03-06T04:32:22;3.10;99.90
13436;DHT22;6790;49.520;8.504;2024-03-06T04:34:47;3.10;99.90
13436;DHT22;6790;49.520;8.504;2024-03-06T04:37:13;3.10;99.90
13436;DHT22;6790;49.520;8.504;2024-03-06T04:39:39;3.20;99.90
13436;DHT22;6790;49.520;8.504;2024-03-06T04:42:05;3.30;99.90
13436;DHT22;6790;49.520;8.504;2024-03-06T04:44:34;3.20;99.90
13436;DHT22;6790;49.520;8.504;2024-03-06T04:47:00;3.30;99.90
13436;DHT22;6790;49.520;8.504;2024-03-06T04:49:25;3.30;99.90
13436;DHT22;6790;49.520;8.504;2024-03-06T04:51:51;3.40;99.90
13436;DHT22;6790;49.520;8.504;2024-03-06T04:54:17;3.30;99.90
13436;DHT22;6790;49.520;8.504;2024-03-06T04:56:42;3.40;99.90
13436;DHT22;6790;49.520;8.504;2024-03-06T04:59:08;3.30;99.90
13436;DHT22;6790;49.520;8.504;2024-03-06T05:01:33;3.20;99.90
13436;DHT22;6790;49.520;8.504;2024-03-06T05:03:59;3.20;99.90
13436;DHT22;6790;49.520;8.504;2024-03-06T05:06:25;3.10;99.90
13436;DHT22;6790;49.520;8.504;2024-03-06T05:08:51;3.10;99.90
13436;DHT22;6790;49.520;8.504;2024-03-06T05:11:16;3.10;99.90
13436;DHT22;6790;49.520;8.504;2024-03-06T05:13:43;3.10;99.90
13436;DHT22;6790;49.520;8.504;2024-03-06T05:16:08;3.00;99.90
13436;DHT22;6790;49.520;8.504;2024-03-06T05:18:34;3.00;99.90
13436;DHT22;6790;49.520;8.504;2024-03-06T05:21:00;2.90;99.90
13436;DHT22;6790;49.520;8.504;2024-03-06T05:23:26;3.00;99.90
13436;DHT22;6790;49.520;8.504;2024-03-06T05:25:52;3.00;99.90
13436;DHT22;6790;49.520;8.504;2024-03-06T05:28:18;3.10;99.90
13436;DHT22;6790;49.520;8.504;2024-03-06T05:30:43;3.10;99.90
13436;DHT22;6790;49.520;8.504;2024-03-06T05:33:09;3.10;99.90
13436;DHT22;6790;49.520;8.504;2024-03-06T05:35:35;3.10;99.90
13436;DHT22;6790;49.520;8.504;2024-03-06T05:38:00;3.10;99.90
13436;DHT22;6790;49.520;8.504;2024-03-06T05:40:26;3.20;99.90
13436;DHT22;6790;49.520;8.504;2024-03-06T05:42:51;3.20;99.90
13436;DHT22;6790;49.520;8.504;2024-03-06T05:45:17;3.30;99.90
13436;DHT22;6790;49.520;8.504;2024-03-06T05:47:43;3.50;99.90
13436;DHT22;6790;49.520;8.504;2024-03-06T05:50:09;3.50;99.90
13436;DHT22;6790;49.520;8.504;2024-03-06T05:52:36;3.50;99.90
13436;DHT22;6790;49.520;8.504;2024-03-06T05:55:02;3.50;99.90
13436;DHT22;6790;49.520;8.504;2024-03-06T05:57:31;3.50;99.90
13436;DHT22;6790;49.520;8.504;2024-03-06T05:59:57;3.50;99.90
13436;DHT22;6790;49.520;8.504;2024-03-06T06:02:23;3.40;99.90
13436;DHT22;6790;49.520;8.504;2024-03-06T06:04:49;3.50;99.90
13436;DHT22;6790;49.520;8.504;2024-03-06T06:07:15;3.50;99.90
13436;DHT22;6790;49.520;8.504;2024-03-06T06:09:41;3.40;99.90
13436;DHT22;6790;49.520;8.504;2024-03-06T06:12:06;3.60;99.90
13436;DHT22;6790;49.520;8.504;2024-03-06T06:14:32;3.60;99.90
13436;DHT22;6790;49.520;8.504;2024-03-06T06:16:58;3.70;99.90
13436;DHT22;6790;49.520;8.504;2024-03-06T06:19:23;3.70;99.90
13436;DHT22;6790;49.520;8.504;2024-03-06T06:21:53;3.70;99.90
13436;DHT22;6790;49.520;8.504;2024-03-06T06:24:19;3.70;99.90
13436;DHT22;6790;49.520;8.504;2024-03-06T06:26:45;3.70;99.90
13436;DHT22;6790;49.520;8.504;2024-03-06T06:29:11;3.70;99.90
13436;DHT22;6790;49.520;8.504;2024-03-06T06:31:37;3.70;99.90
13436;DHT22;6790;49.520;8.504;2024-03-06T06:34:02;3.70;99.90
13436;DHT22;6790;49.520;8.504;2024-03-06T06:36:28;3.80;99.90
13436;DHT22;6790;49.520;8.504;2024-03-06T06:38:54;3.80;99.90
13436;DHT22;6790;49.520;8.504;2024-03-06T06:41:20;3.90;99.90
13436;DHT22;6790;49.520;8.504;2024-03-06T06:43:46;4.00;99.90
13436;DHT22;6790;49.520;8.504;2024-03-06T06:46:12;4.00;99.90
13436;DHT22;6790;49.520;8.504;2024-03-06T06:48:38;4.10;99.90
13436;DHT22;6790;49.520;8.504;2024-03-06T06:51:03;4.10;99.90
13436;DHT22;6790;49.520;8.504;2024-03-06T06:53:32;4.20;99.90
13436;DHT22;6790;49.520;8.504;2024-03-06T06:55:58;4.20;99.90
13436;DHT22;6790;49.520;8.504;2024-03-06T06:58:24;4.40;99.90
13436;DHT22;6790;49.520;8.504;2024-03-06T07:00:52;4.40;99.90
13436;DHT22;6790;49.520;8.504;2024-03-06T07:03:18;4.40;99.90
13436;DHT22;6790;49.520;8.504;2024-03-06T07:05:43;4.40;99.90
13436;DHT22;6790;49.520;8.504;2024-03-06T07:08:09;4.40;99.90
13436;DHT22;6790;49.520;8.504;2024-03-06T07:10:35;4.60;99.90
13436;DHT22;6790;49.520;8.504;2024-03-06T07:13:02;4.70;99.90
13436;DHT22;6790;49.520;8.504;2024-03-06T07:15:28;4.80;99.90
13436;DHT22;6790;49.520;8.504;2024-03-06T07:17:54;4.80;99.90
13436;DHT22;6790;49.520;8.504;2024-03-06T07:20:20;4.90;99.90
13436;DHT22;6790;49.520;8.504;2024-03-06T07:22:46;5.00;99.90
13436;DHT22;6790;49.520;8.504;2024-03-06T07:25:12;5.00;99.90
13436;DHT22;6790;49.520;8.504;2024-03-06T07:27:37;5.10;99.90
13436;DHT22;6790;49.520;8.504;2024-03-06T07:30:04;5.10;99.90
13436;DHT22;6790;49.520;8.504;2024-03-06T07:32:30;5.20;99.90
13436;DHT22;6790;49.520;8.504;2024-03-06T07:34:57;5.30;99.90
13436;DHT22;6790;49.520;8.504;2024-03-06T07:37:24;5.30;99.90
13436;DHT22;6790;49.520;8.504;2024-03-06T07:39:49;5.40;99.90
13436;DHT22;6790;49.520;8.504;2024-03-06T07:42:15;5.50;99.90
13436;DHT22;6790;49.520;8.504;2024-03-06T07:44:41;5.60;99.90
13436;DHT22;6790;49.520;8.504;2024-03-06T07:47:06;5.70;99.90
13436;DHT22;6790;49.520;8.504;2024-03-06T07:49:32;5.80;99.90
13436;DHT22;6790;49.520;8.504;2024-03-06T07:51:58;5.80;99.90
13436;DHT22;6790;49.520;8.504;2024-03-06T07:54:24;5.90;99.90
13436;DHT22;6790;49.520;8.504;2024-03-06T07:56:50;5.90;99.90
13436;DHT22;6790;49.520;8.504;2024-03-06T07:59:15;6.00;99.90
13436;DHT22;6790;49.520;8.504;2024-03-06T08:01:43;6.00;99.90
13436;DHT22;6790;49.520;8.504;2024-03-06T08:04:09;6.20;99.90
13436;DHT22;6790;49.520;8.504;2024-03-06T08:06:34;6.20;99.90
13436;DHT22;6790;49.520;8.504;2024-03-06T08:09:02;6.30;99.90
13436;DHT22;6790;49.520;8.504;2024-03-06T08:11:28;6.40;99.90
13436;DHT22;6790;49.520;8.504;2024-03-06T08:14:00;6.60;99.90
13436;DHT22;6790;49.520;8.504;2024-03-06T08:16:27;6.70;99.90
13436;DHT22;6790;49.520;8.504;2024-03-06T08:18:54;6.70;99.90
13436;DHT22;6790;49.520;8.504;2024-03-06T08:21:21;6.80;99.90
13436;DHT22;6790;49.520;8.504;2024-03-06T08:23:48;7.00;99.90
13436;DHT22;6790;49.520;8.504;2024-03-06T08:26:14;7.10;99.90
13436;DHT22;6790;49.520;8.504;2024-03-06T08:28:40;7.20;99.90
13436;DHT22;6790;49.520;8.504;2024-03-06T08:31:06;7.30;99.90
13436;DHT22;6790;49.520;8.504;2024-03-06T08:33:31;7.40;99.90
13436;DHT22;6790;49.520;8.504;2024-03-06T08:35:57;7.50;99.90
13436;DHT22;6790;49.520;8.504;2024-03-06T08:38:23;7.80;99.90
13436;DHT22;6790;49.520;8.504;2024-03-06T08:40:49;7.90;99.90
13436;DHT22;6790;49.520;8.504;2024-03-06T08:43:16;8.00;99.90
13436;DHT22;6790;49.520;8.504;2024-03-06T08:45:42;8.00;99.90
13436;DHT22;6790;49.520;8.504;2024-03-06T08:48:08;7.90;99.90
13436;DHT22;6790;49.520;8.504;2024-03-06T08:50:34;8.00;99.90
13436;DHT22;6790;49.520;8.504;2024-03-06T08:53:00;7.90;99.90
13436;DHT22;6790;49.520;8.504;2024-03-06T08:55:27;7.80;99.90
13436;DHT22;6790;49.520;8.504;2024-03-06T08:57:53;7.80;99.90
13436;DHT22;6790;49.520;8.504;2024-03-06T09:00:19;7.90;99.90
13436;DHT22;6790;49.520;8.504;2024-03-06T09:02:45;8.10;99.90
13436;DHT22;6790;49.520;8.504;2024-03-06T09:05:11;8.40;99.90
13436;DHT22;6790;49.520;8.504;2024-03-06T09:07:38;8.70;99.90
13436;DHT22;6790;49.520;8.504;2024-03-06T09:10:06;8.80;99.90
13436;DHT22;6790;49.520;8.504;2024-03-06T09:12:33;8.70;99.90
13436;DHT22;6790;49.520;8.504;2024-03-06T09:14:58;9.20;99.90
13436;DHT22;6790;49.520;8.504;2024-03-06T09:17:26;9.60;99.90
13436;DHT22;6790;49.520;8.504;2024-03-06T09:19:52;9.80;99.90
13436;DHT22;6790;49.520;8.504;2024-03-06T09:22:17;9.90;99.90
13436;DHT22;6790;49.520;8.504;2024-03-06T09:24:43;9.90;99.90
13436;DHT22;6790;49.520;8.504;2024-03-06T09:27:09;9.50;99.90
13436;DHT22;6790;49.520;8.504;2024-03-06T09:29:35;9.30;99.90
13436;DHT22;6790;49.520;8.504;2024-03-06T09:32:01;9.00;99.90
13436;DHT22;6790;49.520;8.504;2024-03-06T09:34:27;8.90;99.90
13436;DHT22;6790;49.520;8.504;2024-03-06T09:36:52;8.90;99.90
13436;DHT22;6790;49.520;8.504;2024-03-06T09:39:19;9.00;99.90
13436;DHT22;6790;49.520;8.504;2024-03-06T09:41:50;9.10;99.90
13436;DHT22;6790;49.520;8.504;2024-03-06T09:44:16;9.10;99.90
13436;DHT22;6790;49.520;8.504;2024-03-06T09:46:44;9.20;99.90
13436;DHT22;6790;49.520;8.504;2024-03-06T09:49:19;9.30;99.90
13436;DHT22;6790;49.520;8.504;2024-03-06T09:51:46;9.30;99.90
13436;DHT22;6790;49.520;8.504;2024-03-06T09:54:16;9.40;99.90
13436;DHT22;6790;49.520;8.504;2024-03-06T09:56:46;9.40;99.90
13436;DHT22;6790;49.520;8.504;2024-03-06T09:59:13;9.60;99.90
13436;DHT22;6790;49.520;8.504;2024-03-06T10:04:33;9.90;99.90
13436;DHT22;6790;49.520;8.504;2024-03-06T10:07:02;9.90;99.90
13436;DHT22;6790;49.520;8.504;2024-03-06T10:09:28;10.00;99.90
13436;DHT22;6790;49.520;8.504;2024-03-06T10:11:58;10.20;99.90
13436;DHT22;6790;49.520;8.504;2024-03-06T10:14:24;10.20;99.90
13436;DHT22;6790;49.520;8.504;2024-03-06T10:16:53;10.40;99.90
13436;DHT22;6790;49.520;8.504;2024-03-06T10:19:27;10.70;99.90
13436;DHT22;6790;49.520;8.504;2024-03-06T10:21:57;11.00;99.90
13436;DHT22;6790;49.520;8.504;2024-03-06T10:24:24;11.00;99.90
13436;DHT22;6790;49.520;8.504;2024-03-06T10:26:51;11.10;99.90
13436;DHT22;6790;49.520;8.504;2024-03-06T10:29:20;11.30;99.90
13436;DHT22;6790;49.520;8.504;2024-03-06T10:31:51;11.40;99.90
13436;DHT22;6790;49.520;8.504;2024-03-06T10:34:17;11.50;99.90
13436;DHT22;6790;49.520;8.504;2024-03-06T10:36:43;11.60;99.90
13436;DHT22;6790;49.520;8.504;2024-03-06T10:39:11;11.60;99.90
13436;DHT22;6790;49.520;8.504;2024-03-06T10:41:42;11.80;99.90
13436;DHT22;6790;49.520;8.504;2024-03-06T10:44:12;11.90;99.90
13436;DHT22;6790;49.520;8.504;2024-03-06T10:46:44;12.20;99.90
13436;DHT22;6790;49.520;8.504;2024-03-06T10:49:13;12.10;99.90
13436;DHT22;6790;49.520;8.504;2024-03-06T10:51:42;12.00;99.90
13436;DHT22;6790;49.520;8.504;2024-03-06T10:54:09;12.10;99.90
13436;DHT22;6790;49.520;8.504;2024-03-06T10:56:38;12.10;99.90
13436;DHT22;6790;49.520;8.504;2024-03-06T10:59:09;12.30;99.90
13436;DHT22;6790;49.520;8.504;2024-03-06T11:01:37;12.40;99.90
13436;DHT22;6790;49.520;8.504;2024-03-06T11:04:03;12.20;99.90
13436;DHT22;6790;49.520;8.504;2024-03-06T11:06:31;11.90;99.90
13436;DHT22;6790;49.520;8.504;2024-03-06T11:08:56;11.70;99.90
13436;DHT22;6790;49.520;8.504;2024-03-06T11:11:23;11.80;99.90
13436;DHT22;6790;49.520;8.504;2024-03-06T11:13:50;12.00;99.90
13436;DHT22;6790;49.520;8.504;2024-03-06T11:16:29;12.10;99.90
13436;DHT22;6790;49.520;8.504;2024-03-06T11:19:05;12.30;99.90
13436;DHT22;6790;49.520;8.504;2024-03-06T11:21:32;12.40;99.90
13436;DHT22;6790;49.520;8.504;2024-03-06T11:26:36;11.90;99.90
13436;DHT22;6790;49.520;8.504;2024-03-06T11:29:02;11.90;99.90
13436;DHT22;6790;49.520;8.504;2024-03-06T11:31:28;12.10;99.90
13436;DHT22;6790;49.520;8.504;2024-03-06T11:33:54;12.20;99.90
13436;DHT22;6790;49.520;8.504;2024-03-06T11:36:24;12.40;99.90
13436;DHT22;6790;49.520;8.504;2024-03-06T11:39:03;12.40;99.90
13436;DHT22;6790;49.520;8.504;2024-03-06T11:41:47;12.40;99.90
13436;DHT22;6790;49.520;8.504;2024-03-06T11:44:16;12.50;99.90
13436;DHT22;6790;49.520;8.504;2024-03-06T11:46:43;12.60;99.90
13436;DHT22;6790;49.520;8.504;2024-03-06T11:49:17;12.60;99.90
13436;DHT22;6790;49.520;8.504;2024-03-06T11:51:49;12.90;99.90
13436;DHT22;6790;49.520;8.504;2024-03-06T11:54:18;12.90;99.90
13436;DHT22;6790;49.520;8.504;2024-03-06T11:56:49;12.70;99.90
13436;DHT22;6790;49.520;8.504;2024-03-06T11:59:17;12.50;99.90
13436;DHT22;6790;49.520;8.504;2024-03-06T12:01:44;12.50;99.90
13436;DHT22;6790;49.520;8.504;2024-03-06T12:04:10;12.50;99.90
13436;DHT22;6790;49.520;8.504;2024-03-06T12:06:37;12.40;99.90
13436;DHT22;6790;49.520;8.504;2024-03-06T12:09:03;12.20;99.90
13436;DHT22;6790;49.520;8.504;2024-03-06T12:11:30;12.00;99.90
13436;DHT22;6790;49.520;8.504;2024-03-06T12:13:56;11.90;99.90
13436;DHT22;6790;49.520;8.504;2024-03-06T12:16:22;11.90;99.90
13436;DHT22;6790;49.520;8.504;2024-03-06T12:18:58;11.90;99.90
13436;DHT22;6790;49.520;8.504;2024-03-06T12:21:34;11.90;99.90
13436;DHT22;6790;49.520;8.504;2024-03-06T12:24:08;11.90;99.90
13436;DHT22;6790;49.520;8.504;2024-03-06T12:26:36;11.80;99.90
13436;DHT22;6790;49.520;8.504;2024-03-06T12:29:09;11.80;99.90
13436;DHT22;6790;49.520;8.504;2024-03-06T12:31:38;11.90;99.90
13436;DHT22;6790;49.520;8.504;2024-03-06T12:34:07;11.80;99.90
13436;DHT22;6790;49.520;8.504;2024-03-06T12:36:34;11.80;99.90
13436;DHT22;6790;49.520;8.504;2024-03-06T12:39:01;11.70;99.90
13436;DHT22;6790;49.520;8.504;2024-03-06T12:41:27;11.70;99.90
13436;DHT22;6790;49.520;8.504;2024-03-06T12:43:54;11.50;99.90
13436;DHT22;6790;49.520;8.504;2024-03-06T12:46:21;11.40;99.90
13436;DHT22;6790;49.520;8.504;2024-03-06T12:48:47;11.30;99.90
13436;DHT22;6790;49.520;8.504;2024-03-06T12:51:12;11.40;99.90
13436;DHT22;6790;49.520;8.504;2024-03-06T12:53:38;11.20;99.90
13436;DHT22;6790;49.520;8.504;2024-03-06T12:56:05;11.10;99.90
13436;DHT22;6790;49.520;8.504;2024-03-06T12:58:31;11.10;99.90
13436;DHT22;6790;49.520;8.504;2024-03-06T13:00:57;11.10;99.90
13436;DHT22;6790;49.520;8.504;2024-03-06T13:03:24;11.10;99.90
13436;DHT22;6790;49.520;8.504;2024-03-06T13:05:50;11.10;99.90
13436;DHT22;6790;49.520;8.504;2024-03-06T13:08:15;11.10;99.90
13436;DHT22;6790;49.520;8.504;2024-03-06T13:10:42;11.10;99.90
13436;DHT22;6790;49.520;8.504;2024-03-06T13:13:08;11.10;99.90
13436;DHT22;6790;49.520;8.504;2024-03-06T13:15:34;11.10;99.90
13436;DHT22;6790;49.520;8.504;2024-03-06T13:18:00;11.10;99.90
13436;DHT22;6790;49.520;8.504;2024-03-06T13:20:33;11.00;99.90
13436;DHT22;6790;49.520;8.504;2024-03-06T13:22:59;10.90;99.90
13436;DHT22;6790;49.520;8.504;2024-03-06T13:25:25;10.80;99.90
13436;DHT22;6790;49.520;8.504;2024-03-06T13:27:51;10.80;99.90
13436;DHT22;6790;49.520;8.504;2024-03-06T13:30:20;11.00;99.90
13436;DHT22;6790;49.520;8.504;2024-03-06T13:32:46;11.20;99.90
13436;DHT22;6790;49.520;8.504;2024-03-06T13:35:12;11.20;99.90
13436;DHT22;6790;49.520;8.504;2024-03-06T13:37:42;11.30;99.90
13436;DHT22;6790;49.520;8.504;2024-03-06T13:40:09;11.40;99.90
13436;DHT22;6790;49.520;8.504;2024-03-06T13:42:41;11.50;99.90
13436;DHT22;6790;49.520;8.504;2024-03-06T13:45:10;11.60;99.90
13436;DHT22;6790;49.520;8.504;2024-03-06T13:47:43;11.60;99.90
13436;DHT22;6790;49.520;8.504;2024-03-06T13:50:15;11.60;99.90
13436;DHT22;6790;49.520;8.504;2024-03-06T13:52:42;11.60;99.90
13436;DHT22;6790;49.520;8.504;2024-03-06T13:55:09;11.60;99.90
13436;DHT22;6790;49.520;8.504;2024-03-06T13:57:36;11.60;99.90
13436;DHT22;6790;49.520;8.504;2024-03-06T14:00:04;11.50;99.90
13436;DHT22;6790;49.520;8.504;2024-03-06T14:02:31;11.50;99.90
13436;DHT22;6790;49.520;8.504;2024-03-06T14:04:58;11.50;99.90
13436;DHT22;6790;49.520;8.504;2024-03-06T14:07:24;11.40;99.90
13436;DHT22;6790;49.520;8.504;2024-03-06T14:09:50;11.40;99.90
13436;DHT22;6790;49.520;8.504;2024-03-06T14:12:16;11.40;99.90
13436;DHT22;6790;49.520;8.504;2024-03-06T14:14:42;11.40;99.90
13436;DHT22;6790;49.520;8.504;2024-03-06T14:17:10;11.30;99.90
13436;DHT22;6790;49.520;8.504;2024-03-06T14:19:38;11.30;99.90
13436;DHT22;6790;49.520;8.504;2024-03-06T14:22:05;11.40;99.90
13436;DHT22;6790;49.520;8.504;2024-03-06T14:24:34;11.40;99.90
13436;DHT22;6790;49.520;8.504;2024-03-06T14:27:01;11.40;99.90
13436;DHT22;6790;49.520;8.504;2024-03-06T14:29:27;11.50;99.90
13436;DHT22;6790;49.520;8.504;2024-03-06T14:31:53;11.40;99.90
13436;DHT22;6790;49.520;8.504;2024-03-06T14:34:19;11.40;99.90
13436;DHT22;6790;49.520;8.504;2024-03-06T14:36:45;11.30;99.90
13436;DHT22;6790;49.520;8.504;2024-03-06T14:39:11;11.40;99.90
13436;DHT22;6790;49.520;8.504;2024-03-06T14:41:38;11.50;99.90
13436;DHT22;6790;49.520;8.504;2024-03-06T14:44:04;11.60;99.90
13436;DHT22;6790;49.520;8.504;2024-03-06T14:46:30;11.50;99.90
13436;DHT22;6790;49.520;8.504;2024-03-06T14:48:56;11.30;99.90
13436;DHT22;6790;49.520;8.504;2024-03-06T14:51:22;11.30;99.90
13436;DHT22;6790;49.520;8.504;2024-03-06T14:53:49;11.10;99.90
13436;DHT22;6790;49.520;8.504;2024-03-06T14:56:15;11.00;99.90
13436;DHT22;6790;49.520;8.504;2024-03-06T14:58:41;11.00;99.90
13436;DHT22;6790;49.520;8.504;2024-03-06T15:01:06;10.90;99.90
13436;DHT22;6790;49.520;8.504;2024-03-06T15:03:32;10.90;99.90
13436;DHT22;6790;49.520;8.504;2024-03-06T15:05:58;10.80;99.90
13436;DHT22;6790;49.520;8.504;2024-03-06T15:08:24;10.90;99.90
13436;DHT22;6790;49.520;8.504;2024-03-06T15:10:49;10.80;99.90
13436;DHT22;6790;49.520;8.504;2024-03-06T15:13:17;10.80;99.90
13436;DHT22;6790;49.520;8.504;2024-03-06T15:15:44;10.80;99.90
13436;DHT22;6790;49.520;8.504;2024-03-06T15:18:10;10.80;99.90
13436;DHT22;6790;49.520;8.504;2024-03-06T15:20:36;10.70;99.90
13436;DHT22;6790;49.520;8.504;2024-03-06T15:23:02;10.70;99.90
13436;DHT22;6790;49.520;8.504;2024-03-06T15:25:28;10.80;99.90
13436;DHT22;6790;49.520;8.504;2024-03-06T15:27:53;10.70;99.90
13436;DHT22;6790;49.520;8.504;2024-03-06T15:30:19;10.70;99.90
13436;DHT22;6790;49.520;8.504;2024-03-06T15:32:46;10.70;99.90
13436;DHT22;6790;49.520;8.504;2024-03-06T15:35:12;10.70;99.90
13436;DHT22;6790;49.520;8.504;2024-03-06T15:37:37;10.70;99.90
13436;DHT22;6790;49.520;8.504;2024-03-06T15:40:04;10.70;99.90
13436;DHT22;6790;49.520;8.504;2024-03-06T15:42:31;10.70;99.90
13436;DHT22;6790;49.520;8.504;2024-03-06T15:44:57;10.70;99.90
13436;DHT22;6790;49.520;8.504;2024-03-06T15:47:23;10.70;99.90
13436;DHT22;6790;49.520;8.504;2024-03-06T15:49:48;10.60;99.90
13436;DHT22;6790;49.520;8.504;2024-03-06T15:52:14;10.50;99.90
13436;DHT22;6790;49.520;8.504;2024-03-06T15:54:41;10.60;99.90
13436;DHT22;6790;49.520;8.504;2024-03-06T15:57:07;10.60;99.90